createdAt,value
2017-12-03T00:00:47.238Z,41.30
2017-12-03T00:03:14.742Z,41.38
2017-12-03T00:05:42.134Z,41.26
2017-12-03T00:08:09.546Z,41.33
2017-12-03T00:10:36.928Z,41.28
2017-12-03T00:13:04.331Z,41.20
2017-12-03T00:15:31.703Z,41.18
2017-12-03T00:17:59.113Z,41.25
2017-12-03T00:20:26.851Z,41.34
2017-12-03T00:22:54.279Z,41.31
2017-12-03T00:25:21.648Z,41.37
2017-12-03T00:27:49.038Z,41.28
2017-12-03T00:30:16.487Z,41.29
2017-12-03T00:32:44.082Z,41.28
2017-12-03T00:35:11.577Z,41.35
2017-12-03T00:37:39.070Z,41.30
2017-12-03T00:40:06.561Z,41.30
2017-12-03T00:42:34.100Z,41.30
2017-12-03T00:45:01.624Z,41.17
2017-12-03T00:47:28.989Z,41.23
2017-12-03T00:49:56.390Z,41.43
2017-12-03T00:52:23.826Z,41.46
2017-12-03T00:54:51.250Z,41.55
2017-12-03T00:57:18.643Z,41.46
2017-12-03T00:59:46.058Z,41.38
2017-12-03T01:02:13.500Z,41.40
2017-12-03T01:04:40.935Z,41.31
2017-12-03T01:07:08.345Z,41.20
2017-12-03T01:09:35.784Z,41.40
2017-12-03T01:12:03.210Z,41.47
2017-12-03T01:14:30.716Z,41.41
2017-12-03T01:16:58.123Z,41.44
2017-12-03T01:19:25.589Z,41.41
2017-12-03T01:21:53.071Z,41.34
2017-12-03T01:24:20.459Z,41.48
2017-12-03T01:26:47.907Z,41.49
2017-12-03T01:29:15.277Z,41.49
2017-12-03T01:31:42.808Z,41.48
2017-12-03T01:34:10.216Z,41.38
2017-12-03T01:36:37.685Z,41.41
2017-12-03T01:39:05.173Z,41.49
2017-12-03T01:41:32.722Z,41.49
2017-12-03T01:44:00.135Z,41.46
2017-12-03T01:46:27.657Z,41.37
2017-12-03T01:48:55.066Z,41.33
2017-12-03T01:51:22.450Z,41.49
2017-12-03T01:53:49.883Z,41.42
2017-12-03T01:56:17.275Z,41.42
2017-12-03T01:58:44.822Z,41.54
2017-12-03T02:01:12.233Z,41.42
2017-12-03T02:03:39.807Z,41.57
2017-12-03T02:06:07.206Z,41.49
2017-12-03T02:08:34.619Z,41.41
2017-12-03T02:11:02.055Z,41.68
2017-12-03T02:13:29.456Z,41.63
2017-12-03T02:15:56.869Z,41.50
2017-12-03T02:18:24.289Z,41.61
2017-12-03T02:20:51.732Z,41.54
2017-12-03T02:23:19.084Z,41.50
2017-12-03T02:25:46.485Z,41.67
2017-12-03T02:28:13.999Z,41.62
2017-12-03T02:30:41.444Z,41.53
2017-12-03T02:33:08.818Z,41.53
2017-12-03T02:35:36.259Z,41.55
2017-12-03T02:38:03.647Z,41.50
2017-12-03T02:40:31.058Z,41.59
2017-12-03T02:42:58.481Z,41.63
2017-12-03T02:45:25.864Z,41.50
2017-12-03T02:47:53.267Z,41.59
2017-12-03T02:50:20.627Z,41.55
2017-12-03T02:52:48.154Z,41.63
2017-12-03T02:55:15.543Z,41.61
2017-12-03T02:57:43.325Z,41.65
2017-12-03T03:00:10.702Z,41.60
2017-12-03T03:02:38.151Z,41.61
2017-12-03T03:05:05.595Z,41.68
2017-12-03T03:07:33.002Z,41.59
2017-12-03T03:10:00.447Z,41.67
2017-12-03T03:12:28.030Z,41.73
2017-12-03T03:14:55.410Z,41.80
2017-12-03T03:17:22.858Z,41.63
2017-12-03T03:19:50.271Z,41.80
2017-12-03T03:22:18.264Z,41.83
2017-12-03T03:24:45.747Z,41.84
2017-12-03T03:27:13.116Z,41.80
2017-12-03T03:29:40.559Z,41.90
2017-12-03T03:32:07.937Z,41.75
2017-12-03T03:34:35.356Z,41.84
2017-12-03T03:37:02.727Z,41.86
2017-12-03T03:39:30.144Z,41.81
2017-12-03T03:41:57.640Z,41.83
2017-12-03T03:44:25.055Z,41.74
2017-12-03T03:46:52.467Z,41.79
2017-12-03T03:49:19.838Z,41.69
2017-12-03T03:51:47.259Z,41.81
2017-12-03T03:54:14.651Z,41.76
2017-12-03T03:56:42.159Z,41.68
2017-12-03T03:59:09.632Z,41.77
2017-12-03T04:01:36.998Z,41.88
2017-12-03T04:04:04.679Z,41.77
2017-12-03T04:06:32.081Z,41.85
2017-12-03T04:08:59.454Z,41.84
2017-12-03T04:11:26.860Z,41.83
2017-12-03T04:13:54.228Z,41.83
2017-12-03T04:16:21.715Z,41.69
2017-12-03T04:18:49.249Z,41.68
2017-12-03T04:21:16.611Z,41.72
2017-12-03T04:23:44.168Z,41.70
2017-12-03T04:26:11.543Z,41.62
2017-12-03T04:28:38.969Z,41.68
2017-12-03T04:31:06.415Z,41.56
2017-12-03T04:33:33.830Z,41.71
2017-12-03T04:36:01.242Z,41.72
2017-12-03T04:38:28.623Z,41.65
2017-12-03T04:40:56.033Z,41.66
2017-12-03T04:43:23.612Z,41.56
2017-12-03T04:45:51.134Z,41.68
2017-12-03T04:48:18.522Z,41.67
2017-12-03T04:50:46.120Z,41.67
2017-12-03T04:53:13.595Z,41.70
2017-12-03T04:55:41.055Z,41.74
2017-12-03T04:58:08.766Z,41.63
2017-12-03T05:00:36.187Z,41.70
2017-12-03T05:03:03.851Z,41.72
2017-12-03T05:05:31.259Z,41.71
2017-12-03T05:07:58.625Z,41.75
2017-12-03T05:10:26.303Z,41.58
2017-12-03T05:12:53.714Z,41.79
2017-12-03T05:15:21.126Z,41.82
2017-12-03T05:17:48.490Z,41.70
2017-12-03T05:20:16.251Z,41.81
2017-12-03T05:22:43.703Z,41.78
2017-12-03T05:25:11.259Z,41.76
2017-12-03T05:27:39.080Z,41.74
2017-12-03T05:30:06.586Z,41.68
2017-12-03T05:32:33.958Z,41.72
2017-12-03T05:35:01.398Z,41.92
2017-12-03T05:37:28.799Z,41.85
2017-12-03T05:39:56.197Z,41.90
2017-12-03T05:42:23.572Z,41.83
2017-12-03T05:44:52.565Z,41.93
2017-12-03T05:47:20.269Z,41.76
2017-12-03T05:49:47.687Z,41.91
2017-12-03T05:52:15.314Z,41.75
2017-12-03T05:54:42.839Z,41.81
2017-12-03T05:57:10.222Z,41.83
2017-12-03T05:59:37.651Z,41.88
2017-12-03T06:02:05.021Z,41.90
2017-12-03T06:04:32.514Z,41.91
2017-12-03T06:07:00.405Z,42.03
2017-12-03T06:09:28.331Z,41.93
2017-12-03T06:11:55.674Z,41.95
2017-12-03T06:14:23.060Z,41.91
2017-12-03T06:16:50.455Z,41.90
2017-12-03T06:19:17.818Z,41.98
2017-12-03T06:21:45.384Z,42.00
2017-12-03T06:24:12.945Z,42.04
2017-12-03T06:26:40.487Z,41.91
2017-12-03T06:29:07.890Z,41.99
2017-12-03T06:31:35.252Z,41.97
2017-12-03T06:34:02.783Z,41.87
2017-12-03T06:36:30.191Z,41.97
2017-12-03T06:38:57.670Z,41.92
2017-12-03T06:41:25.587Z,41.91
2017-12-03T06:43:52.989Z,42.05
2017-12-03T06:46:20.481Z,41.98
2017-12-03T06:48:47.952Z,41.90
2017-12-03T06:51:15.321Z,41.97
2017-12-03T06:53:42.933Z,42.03
2017-12-03T06:56:10.659Z,42.01
2017-12-03T06:58:38.058Z,41.96
2017-12-03T07:01:05.448Z,42.00
2017-12-03T07:03:32.851Z,41.96
2017-12-03T07:06:00.244Z,42.01
2017-12-03T07:08:29.736Z,42.05
2017-12-03T07:10:57.356Z,42.14
2017-12-03T07:13:24.781Z,42.04
2017-12-03T07:15:52.191Z,42.01
2017-12-03T07:18:19.630Z,42.11
2017-12-03T07:20:47.174Z,42.06
2017-12-03T07:23:14.712Z,42.22
2017-12-03T07:25:42.172Z,42.19
2017-12-03T07:28:09.639Z,42.05
2017-12-03T07:30:37.008Z,42.11
2017-12-03T07:33:04.422Z,42.20
2017-12-03T07:35:31.921Z,42.22
2017-12-03T07:37:59.310Z,42.12
2017-12-03T07:40:26.704Z,41.97
2017-12-03T07:42:54.063Z,42.08
2017-12-03T07:45:21.427Z,42.08
2017-12-03T07:47:48.884Z,42.06
2017-12-03T07:50:16.251Z,42.08
2017-12-03T07:52:43.621Z,41.97
2017-12-03T07:55:11.089Z,41.98
2017-12-03T07:57:38.775Z,42.15
2017-12-03T08:00:06.155Z,42.10
2017-12-03T08:02:33.559Z,41.94
2017-12-03T08:05:01.562Z,42.02
2017-12-03T08:07:28.929Z,42.06
2017-12-03T08:09:56.408Z,42.15
2017-12-03T08:12:23.784Z,42.00
2017-12-03T08:14:51.220Z,41.98
2017-12-03T08:17:18.606Z,41.90
2017-12-03T08:19:45.966Z,41.90
2017-12-03T08:22:13.376Z,41.85
2017-12-03T08:24:40.780Z,41.97
2017-12-03T08:27:08.378Z,41.91
2017-12-03T08:29:35.834Z,41.97
2017-12-03T08:32:04.284Z,41.97
2017-12-03T08:34:31.635Z,41.93
2017-12-03T08:36:59.000Z,42.00
2017-12-03T08:39:26.407Z,41.86
2017-12-03T08:41:53.780Z,42.01
2017-12-03T08:44:21.162Z,41.95
2017-12-03T08:46:48.707Z,41.87
2017-12-03T08:49:16.454Z,42.07
2017-12-03T08:51:43.872Z,41.93
2017-12-03T08:54:11.316Z,42.03
2017-12-03T08:56:38.739Z,41.93
2017-12-03T08:59:06.188Z,42.00
2017-12-03T09:01:33.929Z,41.91
2017-12-03T09:04:01.352Z,41.94
2017-12-03T09:06:28.723Z,41.94
2017-12-03T09:08:56.419Z,41.83
2017-12-03T09:11:23.800Z,41.76
2017-12-03T09:13:51.600Z,42.04
2017-12-03T09:16:19.124Z,42.01
2017-12-03T09:18:46.567Z,41.83
2017-12-03T09:21:14.074Z,41.87
2017-12-03T09:23:41.470Z,41.81
2017-12-03T09:26:08.863Z,41.78
2017-12-03T09:28:36.263Z,41.74
2017-12-03T09:31:03.891Z,41.65
2017-12-03T09:33:31.335Z,41.76
2017-12-03T09:35:58.711Z,41.79
2017-12-03T09:38:26.098Z,41.90
2017-12-03T09:40:53.525Z,41.75
2017-12-03T09:43:21.004Z,41.85
2017-12-03T09:45:48.371Z,41.86
2017-12-03T09:48:15.789Z,41.90
2017-12-03T09:50:43.281Z,41.98
2017-12-03T09:53:10.675Z,41.79
2017-12-03T09:55:38.119Z,41.73
2017-12-03T09:58:05.512Z,41.88
2017-12-03T10:00:32.995Z,41.88
2017-12-03T10:03:00.429Z,41.80
2017-12-03T10:05:27.871Z,41.79
2017-12-03T10:07:55.304Z,41.78
2017-12-03T10:10:22.683Z,41.85
2017-12-03T10:12:50.087Z,41.72
2017-12-03T10:15:17.484Z,41.80
2017-12-03T10:17:45.019Z,41.82
2017-12-03T10:20:12.470Z,41.79
2017-12-03T10:22:39.855Z,41.86
2017-12-03T10:25:07.260Z,41.78
2017-12-03T10:27:34.635Z,41.84
2017-12-03T10:30:02.052Z,41.84
2017-12-03T10:32:29.428Z,41.79
2017-12-03T10:34:56.892Z,41.95
2017-12-03T10:37:24.295Z,41.96
2017-12-03T10:39:52.151Z,42.01
2017-12-03T10:42:19.506Z,41.97
2017-12-03T10:44:47.016Z,41.96
2017-12-03T10:47:14.522Z,41.92
2017-12-03T10:49:41.918Z,41.93
2017-12-03T10:52:09.282Z,41.92
2017-12-03T10:54:37.606Z,41.94
2017-12-03T10:57:04.967Z,41.99
2017-12-03T10:59:32.374Z,42.01
2017-12-03T11:01:59.770Z,41.83
2017-12-03T11:04:27.271Z,41.91
2017-12-03T11:06:54.863Z,41.99
2017-12-03T11:09:22.258Z,41.96
2017-12-03T11:11:49.751Z,42.00
2017-12-03T11:14:17.170Z,42.09
2017-12-03T11:16:44.538Z,42.04
2017-12-03T11:19:12.019Z,42.11
2017-12-03T11:21:39.387Z,42.19
2017-12-03T11:24:06.847Z,42.27
2017-12-03T11:26:34.355Z,42.08
2017-12-03T11:29:01.734Z,42.20
2017-12-03T11:31:29.277Z,42.24
2017-12-03T11:33:56.765Z,42.26
2017-12-03T11:36:24.126Z,42.28
2017-12-03T11:38:52.550Z,42.35
2017-12-03T11:41:20.001Z,42.35
2017-12-03T11:43:47.619Z,42.32
2017-12-03T11:46:15.028Z,42.42
2017-12-03T11:48:42.650Z,42.31
2017-12-03T11:51:10.111Z,42.30
2017-12-03T11:53:37.582Z,42.41
2017-12-03T11:56:04.986Z,42.44
2017-12-03T11:58:32.385Z,42.40
2017-12-03T12:00:59.757Z,42.43
2017-12-03T12:03:27.227Z,42.47
2017-12-03T12:05:54.663Z,42.60
2017-12-03T12:08:22.109Z,42.44
2017-12-03T12:10:49.650Z,42.45
2017-12-03T12:13:17.009Z,42.33
2017-12-03T12:15:44.621Z,42.36
2017-12-03T12:18:11.999Z,42.41
2017-12-03T12:20:39.454Z,42.38
2017-12-03T12:23:06.927Z,42.40
2017-12-03T12:25:34.345Z,42.36
2017-12-03T12:28:01.723Z,42.40
2017-12-03T12:30:29.356Z,42.40
2017-12-03T12:32:56.920Z,42.55
2017-12-03T12:35:24.294Z,42.56
2017-12-03T12:37:51.814Z,42.42
2017-12-03T12:40:19.912Z,42.38
2017-12-03T12:42:47.286Z,42.42
2017-12-03T12:45:14.979Z,42.49
2017-12-03T12:47:42.591Z,42.43
2017-12-03T12:50:10.587Z,42.49
2017-12-03T12:52:38.003Z,42.34
2017-12-03T12:55:05.640Z,42.50
2017-12-03T12:57:33.043Z,42.45
2017-12-03T13:00:00.593Z,42.50
2017-12-03T13:02:28.176Z,42.44
2017-12-03T13:04:55.627Z,42.43
2017-12-03T13:07:23.054Z,42.43
2017-12-03T13:09:50.458Z,42.57
2017-12-03T13:12:18.099Z,42.54
2017-12-03T13:14:45.523Z,42.42
2017-12-03T13:17:13.019Z,42.44
2017-12-03T13:19:40.486Z,42.47
2017-12-03T13:22:07.835Z,42.37
2017-12-03T13:24:35.256Z,42.53
2017-12-03T13:27:02.625Z,42.52
2017-12-03T13:29:30.044Z,42.56
2017-12-03T13:31:57.397Z,42.56
2017-12-03T13:34:24.802Z,42.56
2017-12-03T13:36:52.207Z,42.58
2017-12-03T13:39:19.603Z,42.59
2017-12-03T13:41:46.999Z,42.57
2017-12-03T13:44:14.558Z,42.55
2017-12-03T13:46:41.976Z,42.60
2017-12-03T13:49:09.366Z,42.65
2017-12-03T13:51:36.782Z,42.73
2017-12-03T13:54:04.238Z,42.76
2017-12-03T13:56:31.643Z,42.65
2017-12-03T13:58:59.083Z,42.66
2017-12-03T14:01:26.466Z,42.69
2017-12-03T14:03:53.869Z,42.67
2017-12-03T14:06:21.349Z,42.72
2017-12-03T14:08:48.751Z,42.76
2017-12-03T14:11:16.167Z,42.87
2017-12-03T14:13:43.570Z,42.76
2017-12-03T14:16:11.002Z,42.73
2017-12-03T14:18:38.379Z,42.71
2017-12-03T14:21:05.774Z,42.76
2017-12-03T14:23:33.189Z,42.88
2017-12-03T14:26:00.572Z,42.83
2017-12-03T14:28:28.064Z,42.89
2017-12-03T14:30:55.435Z,42.92
2017-12-03T14:33:22.857Z,42.78
2017-12-03T14:35:50.334Z,42.75
2017-12-03T14:38:17.918Z,42.82
2017-12-03T14:40:45.476Z,42.86
2017-12-03T14:43:13.010Z,42.91
2017-12-03T14:45:40.488Z,42.92
2017-12-03T14:48:07.876Z,42.95
2017-12-03T14:50:35.299Z,43.05
2017-12-03T14:53:02.691Z,43.17
2017-12-03T14:55:30.118Z,43.12
2017-12-03T14:57:58.534Z,43.10
2017-12-03T15:00:25.909Z,43.12
2017-12-03T15:02:53.319Z,43.02
2017-12-03T15:05:20.676Z,43.11
2017-12-03T15:07:48.127Z,43.19
2017-12-03T15:10:15.547Z,43.26
2017-12-03T15:12:42.972Z,43.10
2017-12-03T15:15:10.393Z,43.21
2017-12-03T15:17:37.928Z,43.29
2017-12-03T15:20:05.282Z,43.23
2017-12-03T15:22:32.684Z,43.23
2017-12-03T15:25:00.089Z,43.23
2017-12-03T15:27:27.541Z,43.26
2017-12-03T15:29:54.960Z,43.30
2017-12-03T15:32:22.413Z,43.33
2017-12-03T15:34:49.963Z,43.29
2017-12-03T15:37:17.457Z,43.41
2017-12-03T15:39:44.875Z,43.43
2017-12-03T15:42:12.403Z,43.42
2017-12-03T15:44:39.802Z,43.41
2017-12-03T15:47:07.227Z,43.57
2017-12-03T15:49:34.747Z,43.45
2017-12-03T15:52:02.424Z,43.46
2017-12-03T15:54:29.792Z,43.44
2017-12-03T15:56:57.282Z,43.38
2017-12-03T15:59:24.724Z,43.27
2017-12-03T16:01:52.075Z,43.35
2017-12-03T16:04:19.543Z,43.44
2017-12-03T16:06:46.984Z,43.56
2017-12-03T16:09:14.427Z,43.46
2017-12-03T16:11:41.802Z,43.59
2017-12-03T16:14:09.244Z,43.56
2017-12-03T16:16:36.777Z,43.48
2017-12-03T16:19:04.166Z,43.48
2017-12-03T16:21:31.566Z,43.57
2017-12-03T16:23:59.000Z,43.63
2017-12-03T16:26:26.507Z,43.56
2017-12-03T16:28:53.890Z,43.50
2017-12-03T16:31:21.303Z,43.50
2017-12-03T16:33:48.976Z,43.44
2017-12-03T16:36:16.362Z,43.61
2017-12-03T16:38:43.860Z,43.57
2017-12-03T16:41:11.275Z,43.60
2017-12-03T16:43:38.694Z,43.52
2017-12-03T16:46:06.167Z,43.60
2017-12-03T16:48:33.583Z,43.67
2017-12-03T16:51:01.021Z,43.52
2017-12-03T16:53:28.403Z,43.61
2017-12-03T16:55:55.814Z,43.38
2017-12-03T16:58:23.243Z,43.39
2017-12-03T17:00:50.700Z,43.52
2017-12-03T17:03:18.333Z,43.43
2017-12-03T17:05:45.799Z,43.59
2017-12-03T17:08:13.370Z,43.59
2017-12-03T17:10:41.020Z,43.56
2017-12-03T17:13:08.661Z,43.57
2017-12-03T17:15:36.097Z,43.64
2017-12-03T17:18:03.552Z,43.61
2017-12-03T17:20:30.996Z,43.54
2017-12-03T17:22:58.487Z,43.61
2017-12-03T17:25:25.852Z,43.69
2017-12-03T17:27:53.245Z,43.67
2017-12-03T17:30:20.719Z,43.62
2017-12-03T17:32:48.171Z,43.66
2017-12-03T17:35:15.668Z,43.58
2017-12-03T17:37:43.212Z,43.70
2017-12-03T17:40:10.723Z,43.74
2017-12-03T17:42:38.142Z,43.72
2017-12-03T17:45:05.543Z,43.69
2017-12-03T17:47:33.004Z,43.68
2017-12-03T17:50:00.400Z,43.63
2017-12-03T17:52:27.854Z,43.75
2017-12-03T17:54:55.262Z,43.73
2017-12-03T17:57:22.638Z,43.63
2017-12-03T17:59:50.076Z,43.64
2017-12-03T18:02:17.506Z,43.54
2017-12-03T18:04:45.069Z,43.52
2017-12-03T18:07:12.570Z,43.61
2017-12-03T18:09:40.002Z,43.53
2017-12-03T18:12:07.629Z,43.54
2017-12-03T18:14:35.476Z,43.48
2017-12-03T18:17:03.628Z,43.54
2017-12-03T18:19:31.031Z,43.48
2017-12-03T18:21:58.540Z,43.45
2017-12-03T18:24:26.184Z,43.40
2017-12-03T18:26:53.611Z,43.50
2017-12-03T18:29:21.354Z,43.42
2017-12-03T18:31:48.770Z,43.40
2017-12-03T18:34:16.142Z,43.40
2017-12-03T18:36:43.984Z,43.45
2017-12-03T18:39:11.493Z,43.46
2017-12-03T18:41:39.270Z,43.31
2017-12-03T18:44:06.731Z,43.36
2017-12-03T18:46:34.131Z,43.37
2017-12-03T18:49:01.829Z,43.26
2017-12-03T18:51:29.275Z,43.31
2017-12-03T18:53:56.885Z,43.31
2017-12-03T18:56:24.342Z,43.34
2017-12-03T18:58:52.191Z,43.48
2017-12-03T19:01:19.786Z,43.53
2017-12-03T19:03:47.449Z,43.40
2017-12-03T19:06:15.227Z,43.38
2017-12-03T19:08:42.763Z,43.40
2017-12-03T19:11:10.203Z,43.40
2017-12-03T19:13:37.646Z,43.34
2017-12-03T19:16:05.061Z,43.45
2017-12-03T19:18:32.479Z,43.31
2017-12-03T19:20:59.852Z,43.30
2017-12-03T19:23:27.379Z,43.39
2017-12-03T19:25:54.831Z,43.46
2017-12-03T19:28:22.324Z,43.17
2017-12-03T19:30:49.801Z,43.13
2017-12-03T19:33:17.221Z,43.08
2017-12-03T19:35:44.660Z,43.27
2017-12-03T19:38:12.127Z,43.25
2017-12-03T19:40:39.706Z,43.26
2017-12-03T19:43:07.478Z,43.21
2017-12-03T19:45:34.904Z,43.23
2017-12-03T19:48:02.340Z,43.27
2017-12-03T19:50:29.717Z,43.35
2017-12-03T19:52:57.655Z,43.31
2017-12-03T19:55:25.087Z,43.34
2017-12-03T19:57:52.854Z,43.28
2017-12-03T20:00:20.235Z,43.23
2017-12-03T20:02:47.609Z,43.15
2017-12-03T20:05:15.106Z,43.26
2017-12-03T20:07:42.538Z,43.15
2017-12-03T20:10:10.387Z,43.21
2017-12-03T20:12:37.752Z,43.30
2017-12-03T20:15:05.165Z,43.39
2017-12-03T20:17:32.540Z,43.44
2017-12-03T20:19:59.957Z,43.43
2017-12-03T20:22:27.742Z,43.34
2017-12-03T20:24:55.330Z,43.38
2017-12-03T20:27:22.779Z,43.34
2017-12-03T20:29:50.225Z,43.41
2017-12-03T20:32:17.626Z,43.40
2017-12-03T20:34:45.002Z,43.40
2017-12-03T20:37:12.707Z,43.43
2017-12-03T20:39:41.791Z,43.53
2017-12-03T20:42:09.222Z,43.48
2017-12-03T20:44:36.651Z,43.43
2017-12-03T20:47:04.210Z,43.40
2017-12-03T20:49:31.606Z,43.37
2017-12-03T20:51:59.030Z,43.34
2017-12-03T20:54:28.327Z,43.28
2017-12-03T20:56:55.743Z,43.26
2017-12-03T20:59:23.175Z,43.26
2017-12-03T21:01:50.665Z,43.20
2017-12-03T21:04:18.475Z,43.17
2017-12-03T21:06:46.239Z,43.23
2017-12-03T21:09:14.073Z,43.30
2017-12-03T21:11:41.623Z,43.33
2017-12-03T21:14:08.999Z,43.21
2017-12-03T21:16:36.502Z,43.33
2017-12-03T21:19:04.055Z,43.29
2017-12-03T21:21:31.744Z,43.16
2017-12-03T21:23:59.860Z,43.25
2017-12-03T21:26:27.349Z,43.33
2017-12-03T21:28:54.734Z,43.32
2017-12-03T21:31:22.109Z,43.29
2017-12-03T21:33:49.755Z,43.42
2017-12-03T21:36:17.678Z,43.33
2017-12-03T21:38:45.092Z,43.31
2017-12-03T21:41:12.622Z,43.31
2017-12-03T21:43:40.079Z,43.34
2017-12-03T21:46:07.499Z,43.34
2017-12-03T21:48:35.045Z,43.39
2017-12-03T21:51:02.429Z,43.24
2017-12-03T21:53:30.411Z,43.39
2017-12-03T21:55:58.273Z,43.34
2017-12-03T21:58:25.739Z,43.24
2017-12-03T22:00:53.387Z,43.25
2017-12-03T22:03:21.153Z,43.29
2017-12-03T22:05:48.920Z,43.33
2017-12-03T22:08:16.313Z,43.34
2017-12-03T22:10:43.913Z,43.37
2017-12-03T22:13:11.330Z,43.31
2017-12-03T22:15:38.739Z,43.11
2017-12-03T22:18:06.146Z,43.28
2017-12-03T22:20:33.615Z,43.33
2017-12-03T22:23:00.998Z,43.35
2017-12-03T22:25:28.410Z,43.36
2017-12-03T22:27:55.876Z,43.33
2017-12-03T22:30:23.976Z,43.29
2017-12-03T22:32:51.403Z,43.17
2017-12-03T22:35:18.831Z,43.16
2017-12-03T22:37:46.254Z,43.25
2017-12-03T22:40:13.637Z,43.32
2017-12-03T22:42:41.087Z,43.24
2017-12-03T22:45:08.472Z,43.22
2017-12-03T22:47:35.899Z,43.27
2017-12-03T22:50:03.469Z,43.26
2017-12-03T22:55:04.199Z,43.29
2017-12-03T22:57:31.647Z,43.21
2017-12-03T22:59:59.143Z,43.30
2017-12-03T23:02:28.160Z,43.17
2017-12-03T23:04:55.542Z,43.26
2017-12-03T23:07:22.957Z,43.13
2017-12-03T23:09:50.477Z,43.14
2017-12-03T23:12:17.974Z,43.29
2017-12-03T23:14:45.405Z,43.09
2017-12-03T23:17:12.997Z,43.08
2017-12-03T23:19:40.637Z,43.16
2017-12-03T23:22:08.455Z,43.25
2017-12-03T23:24:36.712Z,43.15
2017-12-03T23:27:04.091Z,43.15
2017-12-03T23:29:31.679Z,43.12
2017-12-03T23:31:59.579Z,43.05
2017-12-03T23:34:26.972Z,42.96
2017-12-03T23:36:54.423Z,43.02
2017-12-03T23:39:21.931Z,42.97
2017-12-03T23:41:49.315Z,43.00
2017-12-03T23:44:16.830Z,42.77
2017-12-03T23:46:44.206Z,42.85
2017-12-03T23:49:11.683Z,42.81
2017-12-03T23:51:39.122Z,42.85
2017-12-03T23:54:06.580Z,42.85
2017-12-03T23:56:34.098Z,42.69
2017-12-03T23:59:01.836Z,42.74
